Time;durP1;ratioP1;P1;durP2;ratioP2;P2;SDS_P1;SDS_P2;PMS_P1;PMS_P2;Temp;Humidity;BMP_temperature;BMP_pressure;BME280_temperature;BME280_humidity;BME280_pressure;Samples;Min_cycle;Max_cycle;Signal;HPM_P1;HPM_P2
2023/02/14 00:01:49;;;;;;;3.80;1.63;;;;;;;;;;5051676;28;20033;-82
2023/02/14 00:04:16;;;;;;;3.38;1.77;;;;;;;;;;5068849;28;20016;-82
2023/02/14 00:06:42;;;;;;;2.80;1.60;;;;;;;;;;5060185;28;20074;-82
2023/02/14 00:09:10;;;;;;;3.10;1.13;;;;;;;;;;5061106;28;20029;-82
2023/02/14 00:11:36;;;;;;;2.85;1.45;;;;;;;;;;5069893;28;20093;-82
2023/02/14 00:16:48;;;;;;;3.28;1.33;;;;;;;;;;5050128;28;20106;-82
2023/02/14 00:19:20;;;;;;;2.70;1.55;;;;;;;;;;5050635;28;20028;-83
2023/02/14 00:21:46;;;;;;;2.60;1.60;;;;;;;;;;5050770;28;20040;-82
2023/02/14 00:24:13;;;;;;;3.15;1.40;;;;;;;;;;5058511;28;20036;-82
2023/02/14 00:26:39;;;;;;;3.08;1.50;;;;;;;;;;5053173;28;20599;-82
2023/02/14 00:29:09;;;;;;;3.38;1.73;;;;;;;;;;5050799;28;20040;-82
2023/02/14 00:31:36;;;;;;;2.17;1.27;;;;;;;;;;5050390;28;20025;-82
2023/02/14 00:34:02;;;;;;;1.92;1.35;;;;;;;;;;5057802;28;20495;-82
2023/02/14 00:36:32;;;;;;;5.35;1.95;;;;;;;;;;5065812;28;20033;-82
2023/02/14 00:38:58;;;;;;;3.73;1.40;;;;;;;;;;5055631;28;20484;-83
2023/02/14 00:41:27;;;;;;;6.05;2.03;;;;;;;;;;5066929;28;20730;-83
2023/02/14 00:43:53;;;;;;;2.15;1.25;;;;;;;;;;5050955;28;20397;-83
2023/02/14 00:46:28;;;;;;;2.15;1.52;;;;;;;;;;5049126;28;20037;-83
2023/02/14 00:48:57;;;;;;;3.13;1.38;;;;;;;;;;5054729;28;20354;-83
2023/02/14 00:51:23;;;;;;;2.95;1.40;;;;;;;;;;5043002;28;20098;-83
2023/02/14 00:53:50;;;;;;;2.33;1.40;;;;;;;;;;5059711;28;20492;-83
2023/02/14 00:56:16;;;;;;;5.15;1.67;;;;;;;;;;5050246;28;20040;-83
2023/02/14 00:58:42;;;;;;;2.72;1.70;;;;;;;;;;5055120;28;20159;-82
2023/02/14 01:01:08;;;;;;;2.42;1.55;;;;;;;;;;5050158;28;20048;-82
2023/02/14 01:03:34;;;;;;;2.22;1.50;;;;;;;;;;5061350;28;20050;-81
2023/02/14 01:06:01;;;;;;;3.13;1.95;;;;;;;;;;5055696;28;20025;-82
2023/02/14 01:08:27;;;;;;;2.17;1.30;;;;;;;;;;5051702;28;20127;-83
2023/02/14 01:10:53;;;;;;;2.72;1.75;;;;;;;;;;5050651;28;20029;-83
2023/02/14 01:13:19;;;;;;;2.78;1.70;;;;;;;;;;5061367;28;20028;-83
2023/02/14 01:15:46;;;;;;;5.05;1.67;;;;;;;;;;5062494;28;20137;-82
2023/02/14 01:18:12;;;;;;;3.17;1.45;;;;;;;;;;5051481;28;20058;-82
2023/02/14 01:20:38;;;;;;;3.13;1.40;;;;;;;;;;5047858;28;20028;-82
2023/02/14 01:23:04;;;;;;;2.20;1.50;;;;;;;;;;5056811;28;20082;-82
2023/02/14 01:25:30;;;;;;;2.65;1.90;;;;;;;;;;5051471;28;20028;-82
2023/02/14 01:27:56;;;;;;;2.72;1.63;;;;;;;;;;5052411;28;20036;-82
2023/02/14 01:30:22;;;;;;;2.50;1.30;;;;;;;;;;5047797;28;20416;-82
2023/02/14 01:32:52;;;;;;;2.85;1.20;;;;;;;;;;5048325;28;20382;-82
2023/02/14 01:35:18;;;;;;;3.92;1.70;;;;;;;;;;5058094;28;20041;-83
2023/02/14 01:37:44;;;;;;;3.05;1.73;;;;;;;;;;5058117;28;20047;-82
2023/02/14 01:40:11;;;;;;;3.08;1.83;;;;;;;;;;5064319;28;20020;-83
2023/02/14 01:42:37;;;;;;;2.28;1.40;;;;;;;;;;5059032;28;20135;-82
2023/02/14 01:45:03;;;;;;;1.90;1.48;;;;;;;;;;5056259;28;20504;-82
2023/02/14 01:47:31;;;;;;;3.33;1.75;;;;;;;;;;5054867;28;20036;-83
2023/02/14 01:50:01;;;;;;;2.05;1.17;;;;;;;;;;5049383;28;20055;-83
2023/02/14 01:52:41;;;;;;;3.40;1.58;;;;;;;;;;5056276;28;20089;-82
2023/02/14 01:55:09;;;;;;;2.97;1.63;;;;;;;;;;5062184;28;20107;-83
2023/02/14 01:57:37;;;;;;;1.52;1.23;;;;;;;;;;5054627;28;20029;-82
2023/02/14 02:02:49;;;;;;;1.90;1.52;;;;;;;;;;5057812;28;20032;-83
2023/02/14 02:05:15;;;;;;;2.20;1.40;;;;;;;;;;5063768;28;20477;-83
2023/02/14 02:07:41;;;;;;;2.72;1.63;;;;;;;;;;5050935;28;20043;-82
2023/02/14 02:10:10;;;;;;;2.65;1.67;;;;;;;;;;5049664;28;20048;-82
2023/02/14 02:12:37;;;;;;;3.47;1.48;;;;;;;;;;5053811;28;20040;-82
2023/02/14 02:15:03;;;;;;;3.08;1.58;;;;;;;;;;5050160;28;20041;-82
2023/02/14 02:17:42;;;;;;;3.35;1.52;;;;;;;;;;5060655;28;20334;-82
2023/02/14 02:20:27;;;;;;;2.08;1.42;;;;;;;;;;5057579;28;20054;-83
2023/02/14 02:23:13;;;;;;;2.30;1.60;;;;;;;;;;5052908;28;20389;-83
2023/02/14 02:26:12;;;;;;;3.83;2.20;;;;;;;;;;5051655;28;20041;-82
2023/02/14 02:28:59;;;;;;;4.32;1.58;;;;;;;;;;5006701;28;20059;-82
2023/02/14 02:31:25;;;;;;;2.03;1.40;;;;;;;;;;5056789;28;20037;-82
2023/02/14 02:34:12;;;;;;;1.95;1.25;;;;;;;;;;5060680;28;20035;-82
2023/02/14 02:36:54;;;;;;;3.53;1.55;;;;;;;;;;5055135;28;20020;-82
2023/02/14 02:39:50;;;;;;;3.50;1.70;;;;;;;;;;5054436;28;20035;-82
2023/02/14 02:42:39;;;;;;;3.42;1.95;;;;;;;;;;4974833;28;20605;-82
2023/02/14 02:45:08;;;;;;;3.42;1.52;;;;;;;;;;5063765;28;20037;-82
2023/02/14 02:47:34;;;;;;;1.90;1.15;;;;;;;;;;5056217;28;20039;-82
2023/02/14 02:53:07;;;;;;;2.30;1.50;;;;;;;;;;5050836;28;20069;-81
2023/02/14 02:58:30;;;;;;;2.03;1.35;;;;;;;;;;5054569;28;20142;-83
2023/02/14 03:00:57;;;;;;;1.92;1.40;;;;;;;;;;5056319;28;20035;-82
2023/02/14 03:06:09;;;;;;;3.33;1.70;;;;;;;;;;5054412;28;20066;-82
2023/02/14 03:08:35;;;;;;;3.13;1.75;;;;;;;;;;5055002;28;20041;-82
2023/02/14 03:11:02;;;;;;;3.42;1.70;;;;;;;;;;5060917;28;20028;-82
2023/02/14 03:13:38;;;;;;;2.85;1.27;;;;;;;;;;5057926;28;20541;-82
2023/02/14 03:16:16;;;;;;;2.33;1.50;;;;;;;;;;5061296;28;20440;-82
2023/02/14 03:21:54;;;;;;;3.13;1.60;;;;;;;;;;5055222;28;20187;-82
2023/02/14 03:24:34;;;;;;;3.53;1.50;;;;;;;;;;5051336;28;20036;-82
2023/02/14 03:27:06;;;;;;;2.55;1.60;;;;;;;;;;5056486;28;20429;-82
2023/02/14 03:29:38;;;;;;;2.53;1.50;;;;;;;;;;5066439;28;20051;-82
2023/02/14 03:32:14;;;;;;;2.90;1.70;;;;;;;;;;5062177;28;20029;-82
2023/02/14 03:34:40;;;;;;;1.52;1.33;;;;;;;;;;5053764;28;20029;-82
2023/02/14 03:37:14;;;;;;;3.33;1.50;;;;;;;;;;5068500;28;20107;-82
2023/02/14 03:39:47;;;;;;;2.05;1.33;;;;;;;;;;5055322;28;20469;-82
2023/02/14 03:42:19;;;;;;;2.63;1.48;;;;;;;;;;5056695;28;20053;-82
2023/02/14 03:44:46;;;;;;;2.45;1.45;;;;;;;;;;5062631;28;20033;-82
2023/02/14 03:47:14;;;;;;;2.22;1.30;;;;;;;;;;5055088;28;20032;-82
2023/02/14 03:49:41;;;;;;;2.67;1.73;;;;;;;;;;5060748;28;20496;-81
2023/02/14 03:52:09;;;;;;;1.60;1.25;;;;;;;;;;5060435;28;20588;-82
2023/02/14 03:54:35;;;;;;;4.18;1.85;;;;;;;;;;5057720;28;20439;-82
2023/02/14 03:57:12;;;;;;;1.33;1.10;;;;;;;;;;5068871;28;20078;-82
2023/02/14 03:59:38;;;;;;;2.72;1.60;;;;;;;;;;5065437;28;20021;-82
2023/02/14 04:02:07;;;;;;;4.32;1.70;;;;;;;;;;5058754;28;20039;-82
2023/02/14 04:04:35;;;;;;;2.28;1.35;;;;;;;;;;5051634;28;20043;-82
2023/02/14 04:07:08;;;;;;;3.60;1.50;;;;;;;;;;5070880;28;20043;-82
2023/02/14 04:09:34;;;;;;;2.60;1.40;;;;;;;;;;5064499;28;20031;-82
2023/02/14 04:12:00;;;;;;;2.55;1.48;;;;;;;;;;5065808;28;20050;-83
2023/02/14 04:14:28;;;;;;;2.63;1.60;;;;;;;;;;5060835;28;20091;-82
2023/02/14 04:19:38;;;;;;;2.83;1.33;;;;;;;;;;5055763;28;20067;-83
2023/02/14 04:22:04;;;;;;;2.58;1.50;;;;;;;;;;5063451;28;20029;-82
2023/02/14 04:24:30;;;;;;;2.00;1.58;;;;;;;;;;5053449;28;20087;-82
2023/02/14 04:27:09;;;;;;;2.50;1.35;;;;;;;;;;5037434;28;20029;-82
2023/02/14 04:29:37;;;;;;;3.13;1.63;;;;;;;;;;5060356;28;20039;-82
2023/02/14 04:32:04;;;;;;;3.22;1.55;;;;;;;;;;5054395;28;20025;-82
2023/02/14 04:34:30;;;;;;;2.13;1.67;;;;;;;;;;5054583;28;20514;-82
2023/02/14 04:36:56;;;;;;;1.73;1.27;;;;;;;;;;5059498;28;20029;-83
2023/02/14 04:39:22;;;;;;;4.80;1.92;;;;;;;;;;5057127;28;20404;-83
2023/02/14 04:41:48;;;;;;;1.70;1.42;;;;;;;;;;5058678;28;20175;-82
2023/02/14 04:44:14;;;;;;;2.20;1.30;;;;;;;;;;5064371;28;20059;-82
2023/02/14 04:46:40;;;;;;;4.00;1.73;;;;;;;;;;5049479;28;20025;-82
2023/02/14 04:49:06;;;;;;;3.97;2.22;;;;;;;;;;5057482;28;20033;-82
2023/02/14 04:51:32;;;;;;;1.98;1.30;;;;;;;;;;5063442;28;20076;-82
2023/02/14 04:53:58;;;;;;;2.97;1.73;;;;;;;;;;5062641;28;20032;-82
2023/02/14 04:56:25;;;;;;;3.60;1.50;;;;;;;;;;5059335;28;20116;-82
2023/02/14 04:58:51;;;;;;;1.98;1.48;;;;;;;;;;5055088;28;20362;-82
2023/02/14 05:01:17;;;;;;;3.40;1.70;;;;;;;;;;5056090;28;20051;-82
2023/02/14 05:03:43;;;;;;;2.33;1.42;;;;;;;;;;5054330;28;20047;-82
2023/02/14 05:06:09;;;;;;;2.35;1.60;;;;;;;;;;5064703;28;20037;-82
2023/02/14 05:08:35;;;;;;;2.35;1.52;;;;;;;;;;5059993;28;20035;-82
2023/02/14 05:11:01;;;;;;;2.72;1.75;;;;;;;;;;5055440;28;20025;-82
2023/02/14 05:13:27;;;;;;;3.58;1.92;;;;;;;;;;5056050;28;20037;-82
2023/02/14 05:15:53;;;;;;;1.65;0.98;;;;;;;;;;5054041;28;20033;-83
2023/02/14 05:18:19;;;;;;;3.22;1.55;;;;;;;;;;5063592;28;20525;-83
2023/02/14 05:20:48;;;;;;;3.42;1.45;;;;;;;;;;5054219;28;20059;-82
2023/02/14 05:23:14;;;;;;;2.67;1.35;;;;;;;;;;5051239;28;20037;-83
2023/02/14 05:25:46;;;;;;;3.13;1.40;;;;;;;;;;5058821;28;20036;-82
2023/02/14 05:28:12;;;;;;;1.83;1.45;;;;;;;;;;5060401;28;20028;-83
2023/02/14 05:30:38;;;;;;;2.42;1.50;;;;;;;;;;5051226;28;20037;-81
2023/02/14 05:33:04;;;;;;;1.70;1.35;;;;;;;;;;5053053;28;20029;-81
2023/02/14 05:35:31;;;;;;;2.83;1.48;;;;;;;;;;5055467;28;20029;-79
2023/02/14 05:37:57;;;;;;;4.13;1.55;;;;;;;;;;5057119;28;20032;-80
2023/02/14 05:40:23;;;;;;;3.45;1.73;;;;;;;;;;5049647;28;20021;-92
2023/02/14 05:42:49;;;;;;;2.80;1.50;;;;;;;;;;5055463;28;20040;-83
2023/02/14 05:45:15;;;;;;;4.85;1.83;;;;;;;;;;5049015;28;20025;-78
2023/02/14 05:47:41;;;;;;;3.03;2.00;;;;;;;;;;5058370;28;20360;-76
2023/02/14 05:50:07;;;;;;;2.25;1.48;;;;;;;;;;5048243;28;20042;-73
2023/02/14 05:52:35;;;;;;;2.65;1.45;;;;;;;;;;5043461;28;20031;-76
2023/02/14 05:55:01;;;;;;;2.08;1.55;;;;;;;;;;5048672;28;20020;-75
2023/02/14 05:57:27;;;;;;;3.63;1.83;;;;;;;;;;5059332;28;20040;-75
2023/02/14 05:59:53;;;;;;;2.85;1.58;;;;;;;;;;5048930;28;20039;-76
2023/02/14 06:02:19;;;;;;;2.55;1.55;;;;;;;;;;5049912;28;20037;-75
2023/02/14 06:04:45;;;;;;;2.65;1.70;;;;;;;;;;5068428;28;20032;-76
2023/02/14 06:07:11;;;;;;;3.53;1.77;;;;;;;;;;5068651;28;20028;-76
2023/02/14 06:09:37;;;;;;;3.88;1.48;;;;;;;;;;5066952;28;20041;-76
2023/02/14 06:12:03;;;;;;;3.88;1.48;;;;;;;;;;5048368;28;20036;-76
2023/02/14 06:14:29;;;;;;;4.78;1.52;;;;;;;;;;5054137;28;20029;-78
2023/02/14 06:16:55;;;;;;;2.13;1.38;;;;;;;;;;5048102;28;20029;-79
2023/02/14 06:19:21;;;;;;;2.75;1.92;;;;;;;;;;5061287;28;20021;-76
2023/02/14 06:21:47;;;;;;;4.22;2.13;;;;;;;;;;5058272;28;20078;-78
2023/02/14 06:24:13;;;;;;;2.33;1.38;;;;;;;;;;5053630;28;20041;-79
2023/02/14 06:26:43;;;;;;;3.05;1.95;;;;;;;;;;5049896;28;20035;-78
2023/02/14 06:29:09;;;;;;;4.80;1.67;;;;;;;;;;5051616;28;20021;-79
2023/02/14 06:31:35;;;;;;;2.08;1.52;;;;;;;;;;5047719;28;20287;-78
2023/02/14 06:34:01;;;;;;;3.88;1.63;;;;;;;;;;5048170;28;20029;-78
2023/02/14 06:36:27;;;;;;;6.50;1.70;;;;;;;;;;5056837;28;20029;-78
2023/02/14 06:38:53;;;;;;;2.25;1.65;;;;;;;;;;5048210;28;20108;-79
2023/02/14 06:41:19;;;;;;;2.97;1.83;;;;;;;;;;5055638;28;20413;-78
2023/02/14 06:43:49;;;;;;;3.05;1.80;;;;;;;;;;5070935;28;20496;-78
2023/02/14 06:46:16;;;;;;;3.72;1.77;;;;;;;;;;5049886;28;20032;-78
2023/02/14 06:48:42;;;;;;;2.85;1.83;;;;;;;;;;5047848;28;20029;-78
2023/02/14 06:51:08;;;;;;;2.65;1.60;;;;;;;;;;5047485;28;20025;-77
2023/02/14 06:53:34;;;;;;;2.22;1.67;;;;;;;;;;5064331;28;20032;-77
2023/02/14 06:56:00;;;;;;;2.40;1.52;;;;;;;;;;5065468;28;20020;-77
2023/02/14 06:58:26;;;;;;;1.83;1.48;;;;;;;;;;5063776;28;20435;-77
2023/02/14 07:00:54;;;;;;;3.60;1.77;;;;;;;;;;5059559;28;20115;-77
2023/02/14 07:03:20;;;;;;;4.43;1.75;;;;;;;;;;5064771;28;20404;-77
2023/02/14 07:05:46;;;;;;;1.95;1.45;;;;;;;;;;5049472;28;20059;-77
2023/02/14 07:08:12;;;;;;;3.42;1.80;;;;;;;;;;5047989;28;20057;-78
2023/02/14 07:10:38;;;;;;;3.65;1.60;;;;;;;;;;5049825;28;20583;-79
2023/02/14 07:13:04;;;;;;;3.78;1.38;;;;;;;;;;5053962;28;20115;-79
2023/02/14 07:15:30;;;;;;;3.28;1.90;;;;;;;;;;5057429;28;20024;-79
2023/02/14 07:17:56;;;;;;;2.03;1.58;;;;;;;;;;5066701;28;20025;-79
2023/02/14 07:20:22;;;;;;;1.83;1.35;;;;;;;;;;5064744;28;20032;-79
2023/02/14 07:22:48;;;;;;;3.60;1.80;;;;;;;;;;5067660;28;20050;-80
2023/02/14 07:25:14;;;;;;;3.13;1.70;;;;;;;;;;5060862;28;20025;-80
2023/02/14 07:27:40;;;;;;;4.13;1.92;;;;;;;;;;5054952;28;20707;-76
2023/02/14 07:30:09;;;;;;;2.38;1.40;;;;;;;;;;5048924;28;20040;-75
2023/02/14 07:32:36;;;;;;;3.70;1.70;;;;;;;;;;5047467;28;20220;-76
2023/02/14 07:35:02;;;;;;;3.00;1.75;;;;;;;;;;5057868;28;20350;-75
2023/02/14 07:37:28;;;;;;;4.22;1.90;;;;;;;;;;5063718;28;20047;-75
2023/02/14 07:39:54;;;;;;;3.05;1.73;;;;;;;;;;5064791;28;20032;-75
2023/02/14 07:42:20;;;;;;;3.45;1.80;;;;;;;;;;5056482;28;20048;-75
2023/02/14 07:44:46;;;;;;;3.28;1.80;;;;;;;;;;5049934;28;20054;-76
2023/02/14 07:47:12;;;;;;;2.45;1.73;;;;;;;;;;5053174;28;20048;-75
2023/02/14 07:49:38;;;;;;;4.30;2.70;;;;;;;;;;5048412;28;20040;-79
2023/02/14 07:52:04;;;;;;;3.67;2.10;;;;;;;;;;5065531;28;20028;-78
2023/02/14 07:54:30;;;;;;;3.30;2.10;;;;;;;;;;5059120;28;20024;-75
2023/02/14 07:56:56;;;;;;;4.45;1.83;;;;;;;;;;5051891;28;20020;-77
2023/02/14 07:59:22;;;;;;;2.40;1.80;;;;;;;;;;5049065;28;20538;-76
2023/02/14 08:01:48;;;;;;;3.20;1.95;;;;;;;;;;5047022;28;20462;-76
2023/02/14 08:04:14;;;;;;;4.68;2.20;;;;;;;;;;5050348;28;20032;-75
2023/02/14 08:06:41;;;;;;;2.45;1.65;;;;;;;;;;5047161;28;20033;-76
2023/02/14 08:09:09;;;;;;;2.53;1.70;;;;;;;;;;5046898;28;20108;-75
2023/02/14 08:14:20;;;;;;;3.97;1.95;;;;;;;;;;5054399;28;20504;-75
2023/02/14 08:16:46;;;;;;;2.67;1.70;;;;;;;;;;5052105;28;20040;-74
2023/02/14 08:19:12;;;;;;;2.67;1.67;;;;;;;;;;5052054;28;20058;-76
2023/02/14 08:21:38;;;;;;;2.05;1.40;;;;;;;;;;5059364;28;20091;-75
2023/02/14 08:24:04;;;;;;;4.03;1.95;;;;;;;;;;5070592;28;20025;-84
2023/02/14 08:26:31;;;;;;;3.55;1.98;;;;;;;;;;5062754;28;20027;-81
2023/02/14 08:28:57;;;;;;;3.33;2.03;;;;;;;;;;5052216;28;20009;-75
2023/02/14 08:31:30;;;;;;;4.70;2.03;;;;;;;;;;5067339;28;20377;-79
2023/02/14 08:33:56;;;;;;;3.35;1.55;;;;;;;;;;5070716;28;20033;-79
2023/02/14 08:36:22;;;;;;;3.35;1.63;;;;;;;;;;5067434;28;20025;-80
2023/02/14 08:38:48;;;;;;;3.58;2.20;;;;;;;;;;5055595;28;20037;-79
2023/02/14 08:41:14;;;;;;;3.10;1.58;;;;;;;;;;5069886;28;20058;-88
2023/02/14 08:43:40;;;;;;;3.85;1.95;;;;;;;;;;5051740;28;20040;-80
2023/02/14 08:46:06;;;;;;;3.35;1.95;;;;;;;;;;5051686;28;20037;-87
2023/02/14 08:48:33;;;;;;;2.80;1.67;;;;;;;;;;5050153;28;20021;-82
2023/02/14 08:51:03;;;;;;;3.05;1.65;;;;;;;;;;5056553;28;20107;-82
2023/02/14 08:53:29;;;;;;;3.33;1.77;;;;;;;;;;5054266;28;20046;-81
2023/02/14 08:55:55;;;;;;;2.80;2.08;;;;;;;;;;5050274;28;20605;-80
2023/02/14 08:58:21;;;;;;;1.95;1.48;;;;;;;;;;5051480;28;20024;-81
2023/02/14 09:00:47;;;;;;;2.45;1.50;;;;;;;;;;5055473;28;20036;-81
2023/02/14 09:03:13;;;;;;;2.45;1.63;;;;;;;;;;5068181;28;20024;-82
2023/02/14 09:05:39;;;;;;;3.67;1.77;;;;;;;;;;5069803;28;20380;-81
2023/02/14 09:08:06;;;;;;;3.83;2.10;;;;;;;;;;5067734;28;20029;-80
2023/02/14 09:10:32;;;;;;;3.42;1.88;;;;;;;;;;5057249;28;20032;-79
2023/02/14 09:12:58;;;;;;;2.97;2.13;;;;;;;;;;5068561;28;20025;-79
2023/02/14 09:15:24;;;;;;;3.20;1.80;;;;;;;;;;5069668;28;20377;-79
2023/02/14 09:17:50;;;;;;;4.78;2.25;;;;;;;;;;5067127;28;20551;-79
2023/02/14 09:20:16;;;;;;;4.60;2.53;;;;;;;;;;5061322;28;20017;-77
2023/02/14 09:22:42;;;;;;;4.18;2.08;;;;;;;;;;5062346;28;20033;-87
2023/02/14 09:25:08;;;;;;;4.32;1.95;;;;;;;;;;5045319;28;20051;-88
2023/02/14 09:27:34;;;;;;;4.30;1.73;;;;;;;;;;5052557;28;20478;-87
2023/02/14 09:30:00;;;;;;;2.67;1.88;;;;;;;;;;5049440;28;20036;-87
2023/02/14 09:32:27;;;;;;;2.20;1.73;;;;;;;;;;5054990;28;20033;-87
2023/02/14 09:40:24;;;;;;;3.45;1.98;;;;;;;;;;5057644;28;20113;-87
2023/02/14 09:43:00;;;;;;;4.05;2.10;;;;;;;;;;5050638;28;20036;-88
2023/02/14 09:45:27;;;;;;;5.90;1.80;;;;;;;;;;5062458;28;20462;-89
2023/02/14 09:47:58;;;;;;;6.60;2.22;;;;;;;;;;5052239;28;20090;-88
2023/02/14 09:50:39;;;;;;;3.65;1.85;;;;;;;;;;5056092;28;20028;-87
2023/02/14 09:53:24;;;;;;;3.33;1.60;;;;;;;;;;5064013;28;20068;-88
2023/02/14 09:55:53;;;;;;;3.13;1.65;;;;;;;;;;5051323;28;20036;-88
2023/02/14 09:58:22;;;;;;;3.25;1.70;;;;;;;;;;5054838;28;20070;-87
2023/02/14 10:00:53;;;;;;;2.67;1.80;;;;;;;;;;5050979;28;20161;-87
2023/02/14 10:03:34;;;;;;;4.43;2.10;;;;;;;;;;5055539;28;20526;-87
2023/02/14 10:06:00;;;;;;;3.42;2.25;;;;;;;;;;5058486;28;20032;-88
2023/02/14 10:08:37;;;;;;;6.03;2.33;;;;;;;;;;5067516;28;20116;-88
2023/02/14 10:11:08;;;;;;;6.78;2.10;;;;;;;;;;5054187;28;20469;-87
2023/02/14 10:13:55;;;;;;;4.25;2.30;;;;;;;;;;5054532;28;20024;-87
2023/02/14 10:16:26;;;;;;;3.78;2.00;;;;;;;;;;5051648;28;20033;-87
2023/02/14 10:19:07;;;;;;;3.13;2.00;;;;;;;;;;5052167;28;20108;-88
2023/02/14 10:21:37;;;;;;;2.75;1.92;;;;;;;;;;5047947;28;20035;-86
2023/02/14 10:24:21;;;;;;;2.17;1.73;;;;;;;;;;5048009;28;20025;-87
2023/02/14 10:26:48;;;;;;;4.22;1.95;;;;;;;;;;5052895;28;20086;-86
2023/02/14 10:29:19;;;;;;;5.95;2.13;;;;;;;;;;5050576;28;20226;-87
2023/02/14 10:31:54;;;;;;;4.10;2.10;;;;;;;;;;5049981;28;20489;-87
2023/02/14 10:34:38;;;;;;;2.25;1.35;;;;;;;;;;5052442;28;20044;-86
2023/02/14 10:37:31;;;;;;;4.60;2.03;;;;;;;;;;5060901;28;20028;-85
2023/02/14 10:40:05;;;;;;;3.90;2.15;;;;;;;;;;5058119;28;20570;-77
2023/02/14 10:42:44;;;;;;;2.92;1.75;;;;;;;;;;5056306;28;20056;-87
2023/02/14 10:45:16;;;;;;;2.60;1.65;;;;;;;;;;5053572;28;20602;-86
2023/02/14 10:47:50;;;;;;;4.10;1.60;;;;;;;;;;5051463;28;20033;-85
2023/02/14 10:50:45;;;;;;;3.70;2.05;;;;;;;;;;5055838;28;20130;-85
2023/02/14 10:53:15;;;;;;;3.33;2.15;;;;;;;;;;5063347;28;20136;-85
2023/02/14 10:55:55;;;;;;;4.65;1.92;;;;;;;;;;5047687;28;20024;-85
2023/02/14 10:58:22;;;;;;;3.25;1.77;;;;;;;;;;5048772;28;20029;-86
2023/02/14 11:00:59;;;;;;;4.90;1.85;;;;;;;;;;5066973;28;20047;-85
2023/02/14 11:03:28;;;;;;;2.70;1.98;;;;;;;;;;5057173;28;20039;-86
2023/02/14 11:05:54;;;;;;;6.55;2.08;;;;;;;;;;5053515;28;20036;-86
2023/02/14 11:08:25;;;;;;;5.10;2.55;;;;;;;;;;5055477;28;20036;-86
2023/02/14 11:10:52;;;;;;;3.00;2.03;;;;;;;;;;5047143;28;20029;-86
2023/02/14 11:13:29;;;;;;;4.15;2.25;;;;;;;;;;5047513;28;20037;-86
2023/02/14 11:15:58;;;;;;;3.90;1.88;;;;;;;;;;5047438;28;20381;-86
2023/02/14 11:18:30;;;;;;;3.88;2.13;;;;;;;;;;5066704;28;20029;-86
2023/02/14 11:21:03;;;;;;;3.00;2.17;;;;;;;;;;5067550;28;20052;-86
2023/02/14 11:23:33;;;;;;;5.93;2.47;;;;;;;;;;5061815;28;20033;-86
2023/02/14 11:26:00;;;;;;;4.57;2.13;;;;;;;;;;5047089;28;20025;-87
2023/02/14 11:28:26;;;;;;;5.00;2.30;;;;;;;;;;5057806;28;20120;-87
2023/02/14 11:30:52;;;;;;;4.88;2.22;;;;;;;;;;5047608;28;20033;-86
2023/02/14 11:33:36;;;;;;;6.97;2.60;;;;;;;;;;5046929;28;20112;-83
2023/02/14 11:36:04;;;;;;;3.20;1.88;;;;;;;;;;5061105;28;20460;-85
2023/02/14 11:38:33;;;;;;;2.65;2.00;;;;;;;;;;5052974;28;20028;-81
2023/02/14 11:40:59;;;;;;;5.97;2.40;;;;;;;;;;5063808;28;20108;-84
2023/02/14 11:43:36;;;;;;;4.82;2.15;;;;;;;;;;5063172;28;20027;-79
2023/02/14 11:46:13;;;;;;;3.30;1.90;;;;;;;;;;5066049;28;20063;-82
2023/02/14 11:48:39;;;;;;;3.10;2.10;;;;;;;;;;5055990;28;20036;-82
2023/02/14 11:51:08;;;;;;;5.10;2.22;;;;;;;;;;5060753;28;20036;-82
2023/02/14 11:53:39;;;;;;;3.33;2.35;;;;;;;;;;5067968;28;20130;-82
2023/02/14 11:56:05;;;;;;;5.45;2.78;;;;;;;;;;5054228;28;20044;-82
2023/02/14 11:58:41;;;;;;;4.43;2.58;;;;;;;;;;5064213;28;20030;-83
2023/02/14 12:01:09;;;;;;;2.65;1.90;;;;;;;;;;5054322;28;20032;-83
2023/02/14 12:03:38;;;;;;;3.65;1.95;;;;;;;;;;5069925;28;20033;-82
2023/02/14 12:06:18;;;;;;;3.05;1.70;;;;;;;;;;5069875;28;20028;-83
2023/02/14 12:08:45;;;;;;;2.70;1.90;;;;;;;;;;5065983;28;20095;-83
2023/02/14 12:11:22;;;;;;;3.05;2.25;;;;;;;;;;5059641;28;20120;-82
2023/02/14 12:13:52;;;;;;;8.43;2.38;;;;;;;;;;5065450;28;20139;-82
2023/02/14 12:16:34;;;;;;;5.43;2.30;;;;;;;;;;5060526;28;20021;-82
2023/02/14 12:19:06;;;;;;;5.10;2.38;;;;;;;;;;5051031;28;20032;-82
2023/02/14 12:21:35;;;;;;;6.90;2.65;;;;;;;;;;5052208;28;20428;-82
2023/02/14 12:24:11;;;;;;;3.85;2.05;;;;;;;;;;5068505;28;20029;-82
2023/02/14 12:26:37;;;;;;;3.88;2.08;;;;;;;;;;5060602;28;20025;-82
2023/02/14 12:29:13;;;;;;;3.92;1.95;;;;;;;;;;5053541;28;20032;-82
2023/02/14 12:31:40;;;;;;;5.13;2.72;;;;;;;;;;5053287;28;20104;-82
2023/02/14 12:34:06;;;;;;;4.60;1.88;;;;;;;;;;5045546;28;20032;-81
2023/02/14 12:37:01;;;;;;;5.35;2.10;;;;;;;;;;5063717;28;20016;-81
2023/02/14 12:39:33;;;;;;;4.18;2.25;;;;;;;;;;5051229;28;20033;-81
2023/02/14 12:42:04;;;;;;;4.32;2.00;;;;;;;;;;5052094;28;20067;-81
2023/02/14 12:44:38;;;;;;;3.47;2.20;;;;;;;;;;5057921;28;20025;-80
2023/02/14 12:47:11;;;;;;;4.25;1.90;;;;;;;;;;5053583;28;20056;-80
2023/02/14 12:49:51;;;;;;;3.03;1.88;;;;;;;;;;5049531;28;20032;-80
2023/02/14 12:52:23;;;;;;;2.65;1.88;;;;;;;;;;5061198;28;20028;-80
2023/02/14 12:54:58;;;;;;;4.30;2.60;;;;;;;;;;5057477;28;20035;-80
2023/02/14 12:57:34;;;;;;;2.65;1.73;;;;;;;;;;5069010;28;20046;-81
2023/02/14 13:00:07;;;;;;;4.75;2.20;;;;;;;;;;5067773;28;20083;-80
2023/02/14 13:02:58;;;;;;;3.50;1.98;;;;;;;;;;5058841;28;20034;-81
2023/02/14 13:05:43;;;;;;;3.53;1.80;;;;;;;;;;5060940;28;20611;-80
2023/02/14 13:08:28;;;;;;;3.03;2.00;;;;;;;;;;5049883;28;20713;-81
2023/02/14 13:10:57;;;;;;;5.30;2.08;;;;;;;;;;5050076;28;20033;-82
2023/02/14 13:13:35;;;;;;;4.40;2.08;;;;;;;;;;5052113;28;20028;-82
2023/02/14 13:16:14;;;;;;;3.75;2.22;;;;;;;;;;5053630;28;20158;-81
2023/02/14 13:19:02;;;;;;;4.00;2.08;;;;;;;;;;5070850;28;20111;-82
2023/02/14 13:21:31;;;;;;;3.40;2.05;;;;;;;;;;5048693;28;20029;-82
2023/02/14 13:24:03;;;;;;;4.13;2.13;;;;;;;;;;5059155;28;20103;-82
2023/02/14 13:26:31;;;;;;;3.42;2.17;;;;;;;;;;5055792;28;20032;-82
2023/02/14 13:29:03;;;;;;;3.03;1.88;;;;;;;;;;5065703;28;20221;-82
2023/02/14 13:31:30;;;;;;;2.95;2.17;;;;;;;;;;5062495;28;20033;-82
2023/02/14 13:34:00;;;;;;;3.63;1.98;;;;;;;;;;5049205;28;20387;-81
2023/02/14 13:36:26;;;;;;;3.63;2.20;;;;;;;;;;5062801;28;20029;-81
2023/02/14 13:39:13;;;;;;;2.78;1.77;;;;;;;;;;5035389;28;20584;-81
2023/02/14 13:41:40;;;;;;;3.42;1.83;;;;;;;;;;5057250;28;20075;-81
2023/02/14 13:44:07;;;;;;;4.95;1.90;;;;;;;;;;5050243;28;20024;-81
2023/02/14 13:46:34;;;;;;;4.40;2.30;;;;;;;;;;5063558;28;20044;-82
2023/02/14 13:49:19;;;;;;;3.58;1.58;;;;;;;;;;5064475;28;20025;-81
2023/02/14 13:51:50;;;;;;;3.63;2.00;;;;;;;;;;5064237;28;20025;-82
2023/02/14 13:54:28;;;;;;;5.45;2.03;;;;;;;;;;5048517;28;20033;-81
2023/02/14 13:56:55;;;;;;;2.45;1.70;;;;;;;;;;5048569;28;20075;-81
2023/02/14 13:59:25;;;;;;;2.47;1.77;;;;;;;;;;5050596;28;20044;-82
2023/02/14 14:01:51;;;;;;;4.15;1.80;;;;;;;;;;5060176;28;20383;-81
2023/02/14 14:04:32;;;;;;;2.25;1.70;;;;;;;;;;5060748;28;20025;-81
2023/02/14 14:07:04;;;;;;;2.05;1.50;;;;;;;;;;5055970;28;20036;-82
2023/02/14 14:09:42;;;;;;;3.33;1.77;;;;;;;;;;5047786;28;20036;-81
2023/02/14 14:12:28;;;;;;;2.25;1.63;;;;;;;;;;5048647;28;20116;-81
2023/02/14 14:15:07;;;;;;;2.35;1.50;;;;;;;;;;5054434;28;20028;-82
2023/02/14 14:17:34;;;;;;;3.45;1.98;;;;;;;;;;5048727;28;20021;-81
2023/02/14 14:20:01;;;;;;;2.03;1.60;;;;;;;;;;5048560;28;20044;-81
2023/02/14 14:22:27;;;;;;;3.10;1.92;;;;;;;;;;5062149;28;20029;-82
2023/02/14 14:25:06;;;;;;;2.03;1.60;;;;;;;;;;5063110;28;20036;-81
2023/02/14 14:27:39;;;;;;;2.75;1.85;;;;;;;;;;5062751;28;20032;-81
2023/02/14 14:30:07;;;;;;;4.88;1.70;;;;;;;;;;5060876;28;20028;-82
2023/02/14 14:32:34;;;;;;;3.05;1.77;;;;;;;;;;5067969;28;20430;-81
2023/02/14 14:35:14;;;;;;;3.03;1.77;;;;;;;;;;5052547;28;20067;-82
2023/02/14 14:37:46;;;;;;;3.08;1.58;;;;;;;;;;5067328;28;20024;-81
2023/02/14 14:40:26;;;;;;;3.55;1.92;;;;;;;;;;5060086;28;20059;-81
2023/02/14 14:42:52;;;;;;;2.92;1.60;;;;;;;;;;5050612;28;20069;-81
2023/02/14 14:45:21;;;;;;;2.88;1.85;;;;;;;;;;5058773;28;20108;-81
2023/02/14 14:47:47;;;;;;;3.30;1.58;;;;;;;;;;5050616;28;20116;-81
2023/02/14 14:50:18;;;;;;;2.47;1.63;;;;;;;;;;5048918;28;20040;-81
2023/02/14 14:52:48;;;;;;;4.00;2.30;;;;;;;;;;5057949;28;20047;-81
2023/02/14 14:55:19;;;;;;;2.95;1.42;;;;;;;;;;5047755;28;20343;-80
2023/02/14 14:57:49;;;;;;;3.65;1.77;;;;;;;;;;5058366;28;20393;-80
2023/02/14 15:00:21;;;;;;;2.80;2.00;;;;;;;;;;5061924;28;20028;-81
2023/02/14 15:02:56;;;;;;;3.97;1.90;;;;;;;;;;5052737;28;20025;-82
2023/02/14 15:05:27;;;;;;;3.53;1.52;;;;;;;;;;5047295;28;20071;-81
2023/02/14 15:07:53;;;;;;;2.88;1.60;;;;;;;;;;5048613;28;20033;-82
2023/02/14 15:10:27;;;;;;;1.77;1.30;;;;;;;;;;5049919;28;20077;-80
2023/02/14 15:15:40;;;;;;;3.78;2.00;;;;;;;;;;5048569;28;20575;-83
2023/02/14 15:18:07;;;;;;;3.38;1.80;;;;;;;;;;5047539;28;20501;-83
2023/02/14 15:20:35;;;;;;;2.80;1.45;;;;;;;;;;5054247;28;20039;-82
2023/02/14 15:23:02;;;;;;;3.17;1.77;;;;;;;;;;5054619;28;20499;-82
2023/02/14 15:25:31;;;;;;;3.58;1.95;;;;;;;;;;5060778;28;20313;-84
2023/02/14 15:27:57;;;;;;;3.25;2.03;;;;;;;;;;5051389;28;20132;-79
2023/02/14 15:30:23;;;;;;;2.72;1.83;;;;;;;;;;5051728;28;20092;-85